| time (UTC) | temp F | wind direction | speed MPH | gust MPH | rain 1hr in | rain 24hr in | rain mn in | humidity % | barometer mb |
| 20260906163030 | 95 | 54 | 0.0 | 8.0 | 0.00 | 0.00 | 0.00 | 58 | 1015.5 |
| 20260906162330 | 95 | 56 | 5.0 | 8.0 | 0.00 | 0.00 | 0.00 | 58 | 1015.5 |
| 20260906161630 | 95 | 94 | 8.0 | 8.0 | 0.00 | 0.00 | 0.00 | 58 | 1015.5 |
| 20260906160930 | 95 | 67 | 5.0 | 8.0 | 0.00 | 0.00 | 0.00 | 60 | 1015.8 |
| 20260906155533 | 93 | 58 | 2.0 | 8.0 | 0.00 | 0.00 | 0.00 | 62 | 1015.5 |
| 20260906154133 | 92 | 65 | 5.0 | 8.0 | 0.00 | 0.00 | 0.00 | 65 | 1015.5 |
| 20260906153433 | 91 | 82 | 5.0 | 8.0 | 0.00 | 0.00 | 0.00 | 66 | 1015.5 |
| 20260906152733 | 89 | 58 | 0.0 | 6.0 | 0.00 | 0.00 | 0.00 | 68 | 1015.5 |
| 20260906152032 | 89 | 70 | 0.0 | 6.0 | 0.00 | 0.00 | 0.00 | 69 | 1015.5 |
| 20260906151333 | 88 | 58 | 5.0 | 6.0 | 0.00 | 0.00 | 0.00 | 70 | 1015.1 |
| 20260906150636 | 87 | 59 | 0.0 | 6.0 | 0.00 | 0.00 | 0.00 | 71 | 1015.1 |
| 20260906145234 | 86 | 59 | 5.0 | 6.0 | 0.00 | 0.00 | 0.00 | 72 | 1015.5 |
| 20260906144533 | 86 | 68 | 5.0 | 6.0 | 0.00 | 0.00 | 0.00 | 73 | 1015.5 |
| 20260906143833 | 84 | 71 | 2.0 | 6.0 | 0.00 | 0.00 | 0.00 | 75 | 1015.1 |
| 20260906143133 | 84 | 108 | 5.0 | 6.0 | 0.00 | 0.00 | 0.00 | 75 | 1015.1 |
| 20260906142434 | 84 | 85 | 5.0 | 6.0 | 0.00 | 0.00 | 0.00 | 75 | 1015.5 |
| 20260906141733 | 83 | 80 | 2.0 | 6.0 | 0.00 | 0.00 | 0.00 | 75 | 1015.5 |
| 20260906141035 | 83 | 79 | 5.0 | 4.0 | 0.00 | 0.00 | 0.00 | 76 | 1015.1 |
| 20260906140333 | 83 | 59 | 2.0 | 4.0 | 0.00 | 0.00 | 0.00 | 77 | 1015.5 |
| 20260906135633 | 83 | 71 | 0.0 | 4.0 | 0.00 | 0.00 | 0.00 | 77 | 1015.5 |
| 20260906134933 | 82 | 59 | 2.0 | 4.0 | 0.00 | 0.00 | 0.00 | 78 | 1015.1 |
| 20260906134232 | 82 | 63 | 2.0 | 4.0 | 0.00 | 0.00 | 0.00 | 79 | 1015.1 |
| 20260906132832 | 79 | 60 | 0.0 | 4.0 | 0.00 | 0.00 | 0.00 | 82 | 1014.8 |
| 20260906132132 | 79 | 78 | 5.0 | 4.0 | 0.00 | 0.00 | 0.00 | 82 | 1015.1 |
| 20260906130732 | 78 | 60 | 0.0 | 4.0 | 0.00 | 0.00 | 0.00 | 83 | 1014.8 |
| 20260906130032 | 78 | 60 | 0.0 | 4.0 | 0.00 | 0.00 | 0.00 | 83 | 1014.8 |
| 20260906124832 | 78 | 69 | 0.0 | 4.0 | 0.00 | 0.00 | 0.00 | 83 | 1014.5 |
| 20260906124132 | 78 | 62 | 0.0 | 4.0 | 0.00 | 0.00 | 0.00 | 83 | 1014.8 |
| 20260906123432 | 78 | 63 | 0.0 | 4.0 | 0.00 | 0.00 | 0.00 | 83 | 1014.5 |
| 20260906122732 | 78 | 60 | 0.0 | 4.0 | 0.00 | 0.00 | 0.00 | 83 | 1014.8 |
| 20260906122032 | 78 | 60 | 0.0 | 4.0 | 0.00 | 0.00 | 0.00 | 83 | 1014.8 |
| 20260906121332 | 78 | 62 | 0.0 | 4.0 | 0.00 | 0.00 | 0.00 | 83 | 1014.5 |
| 20260906120632 | 78 | 60 | 0.0 | 4.0 | 0.00 | 0.00 | 0.00 | 83 | 1014.8 |
| 20260906114533 | 78 | 62 | 0.0 | 2.0 | 0.00 | 0.00 | 0.00 | 83 | 1014.5 |
| 20260906113832 | 78 | 60 | 0.0 | 2.0 | 0.00 | 0.00 | 0.00 | 83 | 1014.5 |
| 20260906112432 | 78 | 60 | 0.0 | 0.0 | 0.00 | 0.00 | 0.00 | 82 | 1014.1 |
| 20260906111732 | 78 | 60 | 0.0 | 0.0 | 0.00 | 0.00 | 0.00 | 82 | 1014.1 |
| 20260906111032 | 78 | 60 | 0.0 | 0.0 | 0.00 | 0.00 | 0.00 | 82 | 1014.1 |
| 20260906110332 | 78 | 60 | 0.0 | 0.0 | 0.00 | 0.00 | 0.00 | 82 | 1014.1 |
| 20260906103532 | 78 | 60 | 0.0 | 0.0 | 0.00 | 0.00 | 0.00 | 82 | 1014.1 |
| 20260906102833 | 78 | 61 | 0.0 | 0.0 | 0.00 | 0.00 | 0.00 | 81 | 1014.1 |
| 20260906102133 | 78 | 60 | 0.0 | 0.0 | 0.00 | 0.00 | 0.00 | 81 | 1014.1 |
| 20260906100033 | 78 | 60 | 0.0 | 0.0 | 0.00 | 0.00 | 0.00 | 81 | 1014.1 |
| 20260906095332 | 78 | 59 | 0.0 | 0.0 | 0.00 | 0.00 | 0.00 | 81 | 1013.8 |
| 20260906093932 | 78 | 61 | 0.0 | 0.0 | 0.00 | 0.00 | 0.00 | 80 | 1013.5 |
| 20260906093233 | 79 | 58 | 0.0 | 0.0 | 0.00 | 0.00 | 0.00 | 80 | 1013.5 |
| 20260906092532 | 79 | 60 | 0.0 | 0.0 | 0.00 | 0.00 | 0.00 | 80 | 1013.5 |
| 20260906091832 | 79 | 60 | 0.0 | 0.0 | 0.00 | 0.00 | 0.00 | 80 | 1013.1 |
| 20260906091132 | 79 | 61 | 0.0 | 0.0 | 0.00 | 0.00 | 0.00 | 79 | 1013.5 |
| 20260906090432 | 79 | 60 | 0.0 | 0.0 | 0.00 | 0.00 | 0.00 | 79 | 1013.5 |
| 20260906085732 | 79 | 59 | 0.0 | 0.0 | 0.00 | 0.00 | 0.00 | 79 | 1013.5 |
| 20260906085032 | 79 | 60 | 0.0 | 4.0 | 0.00 | 0.00 | 0.00 | 79 | 1013.5 |
| 20260906084332 | 79 | 58 | 0.0 | 4.0 | 0.00 | 0.00 | 0.00 | 79 | 1013.1 |
| 20260906083632 | 80 | 58 | 0.0 | 4.0 | 0.00 | 0.00 | 0.00 | 78 | 1013.5 |
| 20260906082932 | 80 | 60 | 0.0 | 4.0 | 0.00 | 0.00 | 0.00 | 78 | 1013.1 |
| 20260906082232 | 80 | 60 | 0.0 | 4.0 | 0.00 | 0.00 | 0.00 | 78 | 1013.1 |
| 20260906081532 | 80 | 60 | 0.0 | 4.0 | 0.00 | 0.00 | 0.00 | 78 | 1013.5 |
| 20260906080132 | 80 | 62 | 0.0 | 4.0 | 0.00 | 0.00 | 0.00 | 77 | 1013.5 |
| 20260906075432 | 80 | 60 | 0.0 | 4.0 | 0.00 | 0.00 | 0.00 | 77 | 1013.8 |
| 20260906074032 | 80 | 60 | 0.0 | 4.0 | 0.00 | 0.00 | 0.00 | 76 | 1013.8 |
| 20260906073332 | 80 | 61 | 0.0 | 4.0 | 0.00 | 0.00 | 0.00 | 76 | 1013.8 |
| 20260906072632 | 81 | 63 | 2.0 | 6.0 | 0.00 | 0.00 | 0.00 | 75 | 1013.8 |
| 20260906071932 | 81 | 59 | 0.0 | 6.0 | 0.00 | 0.00 | 0.00 | 75 | 1013.8 |
| 20260906071232 | 81 | 59 | 0.0 | 6.0 | 0.00 | 0.00 | 0.00 | 75 | 1013.8 |
| 20260906070532 | 81 | 58 | 0.0 | 6.0 | 0.00 | 0.00 | 0.00 | 74 | 1013.8 |
| 20260906065832 | 81 | 60 | 0.0 | 6.0 | 0.00 | 0.00 | 0.00 | 74 | 1013.5 |
| 20260906065131 | 82 | 59 | 0.0 | 6.0 | 0.00 | 0.00 | 0.00 | 73 | 1013.8 |
| 20260906064432 | 82 | 57 | 0.0 | 6.0 | 0.00 | 0.00 | 0.00 | 73 | 1013.5 |
| 20260906063731 | 82 | 69 | 5.0 | 6.0 | 0.00 | 0.00 | 0.00 | 72 | 1013.5 |
| 20260906063032 | 82 | 62 | 0.0 | 6.0 | 0.00 | 0.00 | 0.00 | 71 | 1013.8 |
| 20260906062332 | 82 | 81 | 2.0 | 6.0 | 0.00 | 0.00 | 0.00 | 71 | 1013.8 |
| 20260906061631 | 82 | 81 | 8.0 | 6.0 | 0.00 | 0.00 | 0.00 | 71 | 1014.1 |
| 20260906060931 | 82 | 67 | 2.0 | 6.0 | 0.00 | 0.00 | 0.00 | 70 | 1014.1 |
| 20260906060232 | 82 | 59 | 0.0 | 6.0 | 0.00 | 0.00 | 0.00 | 70 | 1013.8 |
| 20260906054131 | 83 | 68 | 5.0 | 6.0 | 0.00 | 0.00 | 0.00 | 69 | 1014.1 |
| 20260906053431 | 83 | 58 | 0.0 | 6.0 | 0.00 | 0.00 | 0.00 | 68 | 1013.8 |
| 20260906052732 | 83 | 59 | 0.0 | 6.0 | 0.00 | 0.00 | 0.00 | 68 | 1013.8 |
| 20260906052031 | 83 | 70 | 2.0 | 6.0 | 0.00 | 0.00 | 0.00 | 68 | 1013.8 |
| 20260906051332 | 83 | 60 | 0.0 | 6.0 | 0.00 | 0.00 | 0.00 | 68 | 1013.8 |
| 20260906050631 | 83 | 61 | 5.0 | 8.0 | 0.00 | 0.00 | 0.00 | 67 | 1013.8 |
| 20260906045931 | 83 | 80 | 2.0 | 8.0 | 0.00 | 0.00 | 0.00 | 67 | 1013.5 |
| 20260906045231 | 84 | 62 | 0.0 | 8.0 | 0.00 | 0.00 | 0.00 | 66 | 1013.1 |
| 20260906044532 | 84 | 61 | 0.0 | 8.0 | 0.00 | 0.00 | 0.00 | 66 | 1013.5 |
| 20260906043831 | 84 | 61 | 0.0 | 8.0 | 0.00 | 0.00 | 0.00 | 65 | 1013.5 |
| 20260906042432 | 84 | 55 | 0.0 | 8.0 | 0.00 | 0.00 | 0.00 | 64 | 1013.8 |
| 20260906041732 | 85 | 65 | 5.0 | 8.0 | 0.00 | 0.00 | 0.00 | 64 | 1013.8 |
| 20260906041031 | 84 | 112 | 8.0 | 8.0 | 0.00 | 0.00 | 0.00 | 63 | 1013.8 |
| 20260906040332 | 85 | 63 | 2.0 | 8.0 | 0.00 | 0.00 | 0.00 | 63 | 1013.8 |
| 20260906035631 | 85 | 65 | 5.0 | 8.0 | 0.00 | 0.00 | 0.00 | 63 | 1013.5 |
| 20260906034931 | 85 | 60 | 0.0 | 8.0 | 0.00 | 0.00 | 0.00 | 63 | 1013.8 |
| 20260906034233 | 85 | 64 | 5.0 | 8.0 | 0.00 | 0.00 | 0.00 | 63 | 1013.5 |
| 20260906033532 | 85 | 76 | 5.0 | 8.0 | 0.00 | 0.00 | 0.00 | 62 | 1013.8 |
| 20260906032832 | 86 | 73 | 0.0 | 8.0 | 0.00 | 0.00 | 0.00 | 62 | 1013.5 |
| 20260906032131 | 86 | 60 | 0.0 | 8.0 | 0.00 | 0.00 | 0.00 | 62 | 1013.5 |
| 20260906031431 | 86 | 63 | 5.0 | 8.0 | 0.00 | 0.00 | 0.00 | 61 | 1013.8 |
| 20260906030731 | 86 | 65 | 0.0 | 8.0 | 0.00 | 0.00 | 0.00 | 61 | 1013.5 |
| 20260906030031 | 86 | 65 | 5.0 | 8.0 | 0.00 | 0.00 | 0.00 | 60 | 1013.8 |
| 20260906025331 | 86 | 77 | 5.0 | 8.0 | 0.00 | 0.00 | 0.00 | 60 | 1013.8 |
| 20260906024632 | 86 | 114 | 8.0 | 8.0 | 0.00 | 0.00 | 0.00 | 60 | 1013.5 |
| 20260906023231 | 87 | 70 | 2.0 | 8.0 | 0.00 | 0.00 | 0.00 | 59 | 1013.5 |
| 20260906021831 | 87 | 59 | 0.0 | 6.0 | 0.00 | 0.00 | 0.00 | 58 | 1013.1 |
| 20260906021131 | 87 | 38 | 8.0 | 6.0 | 0.00 | 0.00 | 0.00 | 57 | 1013.1 |
| 20260906015031 | 88 | 93 | 5.0 | 17.0 | 0.00 | 0.00 | 0.00 | 56 | 1013.1 |
| 20260906014331 | 88 | 83 | 5.0 | 17.0 | 0.00 | 0.00 | 0.00 | 55 | 1012.8 |
| 20260906013631 | 88 | 60 | 0.0 | 17.0 | 0.00 | 0.00 | 0.00 | 55 | 1012.4 |
| 20260906012931 | 89 | 64 | 5.0 | 17.0 | 0.00 | 0.00 | 0.00 | 54 | 1012.4 |
| 20260906012231 | 89 | 58 | 2.0 | 17.0 | 0.00 | 0.00 | 0.00 | 54 | 1012.4 |
| 20260906010831 | 89 | 61 | 2.0 | 19.0 | 0.00 | 0.00 | 0.00 | 53 | 1012.4 |
| 20260906005431 | 91 | 73 | 11.0 | 19.0 | 0.00 | 0.00 | 0.00 | 50 | 1012.4 |
| 20260906004731 | 92 | 80 | 14.0 | 19.0 | 0.00 | 0.00 | 0.00 | 49 | 1012.4 |
| 20260906004031 | 93 | 81 | 11.0 | 19.0 | 0.00 | 0.00 | 0.00 | 48 | 1012.4 |
| 20260906003331 | 93 | 78 | 8.0 | 19.0 | 0.00 | 0.00 | 0.00 | 47 | 1012.1 |
| 20260906002631 | 94 | 92 | 8.0 | 19.0 | 0.00 | 0.00 | 0.00 | 46 | 1012.1 |
| 20260906001931 | 95 | 54 | 5.0 | 19.0 | 0.00 | 0.00 | 0.00 | 45 | 1011.8 |
| 20260906001231 | 95 | 125 | 14.0 | 19.0 | 0.00 | 0.00 | 0.00 | 45 | 1011.8 |
| 20260906000531 | 96 | 65 | 5.0 | 19.0 | 0.00 | 0.00 | 0.00 | 44 | 1011.8 |
| 20260905235831 | 96 | 63 | 5.0 | 10.0 | 0.00 | 0.00 | 0.00 | 44 | 1011.8 |
| 20260905234431 | 96 | 58 | 5.0 | 10.0 | 0.00 | 0.00 | 0.00 | 44 | 1011.1 |
| 20260905233731 | 96 | 88 | 0.0 | 6.0 | 0.00 | 0.00 | 0.00 | 44 | 1011.4 |
| 20260905233031 | 96 | 60 | 0.0 | 6.0 | 0.00 | 0.00 | 0.00 | 43 | 1011.4 |
| 20260905232331 | 96 | 65 | 2.0 | 6.0 | 0.00 | 0.00 | 0.00 | 44 | 1011.4 |
| 20260905231631 | 96 | 65 | 2.0 | 6.0 | 0.00 | 0.00 | 0.00 | 44 | 1011.4 |
| 20260905230931 | 96 | 66 | 2.0 | 6.0 | 0.00 | 0.00 | 0.00 | 43 | 1011.4 |
| 20260905230231 | 97 | 71 | 2.0 | 6.0 | 0.00 | 0.00 | 0.00 | 43 | 1011.4 |
| 20260905225531 | 97 | 62 | 0.0 | 6.0 | 0.00 | 0.00 | 0.00 | 42 | 1011.4 |
| 20260905223431 | 98 | 57 | 0.0 | 4.0 | 0.00 | 0.00 | 0.00 | 42 | 1011.4 |
| 20260905222731 | 97 | 57 | 2.0 | 4.0 | 0.00 | 0.00 | 0.00 | 42 | 1011.4 |
| 20260905222031 | 97 | 59 | 0.0 | 4.0 | 0.00 | 0.00 | 0.00 | 42 | 1011.1 |
| 20260905215931 | 97 | 75 | 2.0 | 4.0 | 0.00 | 0.00 | 0.00 | 42 | 1011.4 |
| 20260905215231 | 97 | 62 | 0.0 | 4.0 | 0.00 | 0.00 | 0.00 | 42 | 1011.4 |
| 20260905214531 | 98 | 62 | 0.0 | 6.0 | 0.00 | 0.00 | 0.00 | 42 | 1011.8 |
| 20260905213831 | 99 | 87 | 0.0 | 6.0 | 0.00 | 0.00 | 0.00 | 41 | 1011.8 |
| 20260905213131 | 100 | 57 | 2.0 | 6.0 | 0.00 | 0.00 | 0.00 | 41 | 1011.8 |
| 20260905212430 | 100 | 65 | 0.0 | 6.0 | 0.00 | 0.00 | 0.00 | 41 | 1012.1 |
| 20260905211731 | 99 | 71 | 5.0 | 8.0 | 0.00 | 0.00 | 0.00 | 41 | 1011.8 |
| 20260905211031 | 99 | 76 | 2.0 | 8.0 | 0.00 | 0.00 | 0.00 | 41 | 1012.1 |
| 20260905210331 | 100 | 45 | 2.0 | 8.0 | 0.00 | 0.00 | 0.00 | 40 | 1012.1 |
| 20260905205630 | 102 | 70 | 5.0 | 8.0 | 0.00 | 0.00 | 0.00 | 39 | 1012.4 |
| 20260905204931 | 102 | 71 | 5.0 | 8.0 | 0.00 | 0.00 | 0.00 | 40 | 1012.1 |
| 20260905204230 | 101 | 45 | 0.0 | 8.0 | 0.00 | 0.00 | 0.00 | 40 | 1012.4 |
| 20260905203530 | 101 | 67 | 5.0 | 8.0 | 0.00 | 0.00 | 0.00 | 41 | 1012.4 |
| 20260905202831 | 100 | 108 | 5.0 | 8.0 | 0.00 | 0.00 | 0.00 | 42 | 1012.8 |
| 20260905202130 | 100 | 53 | 5.0 | 8.0 | 0.00 | 0.00 | 0.00 | 41 | 1012.4 |
| 20260905201431 | 101 | 62 | 5.0 | 8.0 | 0.00 | 0.00 | 0.00 | 42 | 1012.4 |
| 20260905200730 | 101 | 58 | 5.0 | 6.0 | 0.00 | 0.00 | 0.00 | 42 | 1012.8 |
| 20260905200030 | 100 | 76 | 5.0 | 6.0 | 0.00 | 0.00 | 0.00 | 42 | 1012.8 |
| 20260905195331 | 99 | 52 | 2.0 | 6.0 | 0.00 | 0.00 | 0.00 | 44 | 1013.1 |
| 20260905193930 | 96 | 62 | 0.0 | 10.0 | 0.00 | 0.00 | 0.00 | 45 | 1013.1 |
| 20260905193230 | 96 | 62 | 2.0 | 10.0 | 0.00 | 0.00 | 0.00 | 45 | 1013.1 |
| 20260905192530 | 96 | 61 | 2.0 | 10.0 | 0.00 | 0.00 | 0.00 | 44 | 1013.5 |
| 20260905191830 | 97 | 61 | 0.0 | 10.0 | 0.00 | 0.00 | 0.00 | 44 | 1013.5 |
| 20260905191130 | 98 | 62 | 0.0 | 10.0 | 0.00 | 0.00 | 0.00 | 43 | 1013.8 |
| 20260905190430 | 99 | 73 | 5.0 | 10.0 | 0.00 | 0.00 | 0.00 | 43 | 1013.8 |
| 20260905185730 | 99 | 61 | 0.0 | 10.0 | 0.00 | 0.00 | 0.00 | 43 | 1014.1 |
| 20260905185030 | 98 | 106 | 5.0 | 10.0 | 0.00 | 0.00 | 0.00 | 44 | 1014.1 |
| 20260905184330 | 98 | 77 | 2.0 | 10.0 | 0.00 | 0.00 | 0.00 | 43 | 1013.8 |
| 20260905183630 | 99 | 90 | 14.0 | 10.0 | 0.00 | 0.00 | 0.00 | 43 | 1014.1 |
| 20260905182930 | 99 | 45 | 2.0 | 8.0 | 0.00 | 0.00 | 0.00 | 44 | 1014.5 |
| 20260905182230 | 98 | 57 | 2.0 | 8.0 | 0.00 | 0.00 | 0.00 | 44 | 1014.5 |
| 20260905181531 | 97 | 58 | 0.0 | 8.0 | 0.00 | 0.00 | 0.00 | 44 | 1014.5 |
| 20260905180830 | 98 | 57 | 5.0 | 8.0 | 0.00 | 0.00 | 0.00 | 44 | 1014.8 |
| 20260905180130 | 98 | 63 | 2.0 | 8.0 | 0.00 | 0.00 | 0.00 | 43 | 1014.8 |
| 20260905175431 | 97 | 55 | 5.0 | 8.0 | 0.00 | 0.00 | 0.00 | 44 | 1015.1 |
| 20260905174730 | 97 | 71 | 8.0 | 8.0 | 0.00 | 0.00 | 0.00 | 44 | 1014.8 |
| 20260905174030 | 97 | 56 | 2.0 | 6.0 | 0.00 | 0.00 | 0.00 | 45 | 1014.8 |
| 20260905173330 | 96 | 59 | 2.0 | 6.0 | 0.00 | 0.00 | 0.00 | 46 | 1015.1 |
| 20260905172630 | 96 | 65 | 2.0 | 6.0 | 0.00 | 0.00 | 0.00 | 48 | 1015.1 |
| 20260905171931 | 96 | 69 | 0.0 | 6.0 | 0.00 | 0.00 | 0.00 | 48 | 1015.5 |
| 20260905171230 | 96 | 91 | 5.0 | 6.0 | 0.00 | 0.00 | 0.00 | 47 | 1015.5 |
| 20260905170530 | 96 | 50 | 2.0 | 6.0 | 0.00 | 0.00 | 0.00 | 49 | 1015.5 |
| 20260905165830 | 95 | 62 | 0.0 | 6.0 | 0.00 | 0.00 | 0.00 | 49 | 1015.5 |
| 20260905164430 | 95 | 75 | 5.0 | 6.0 | 0.00 | 0.00 | 0.00 | 49 | 1015.5 |
| 20260905163730 | 94 | 101 | 5.0 | 6.0 | 0.00 | 0.00 | 0.00 | 52 | 1015.5 |